Time;durP1;ratioP1;P1;durP2;ratioP2;P2;SDS_P1;SDS_P2;PMS_P1;PMS_P2;Temp;Humidity;BMP_temperature;BMP_pressure;BME280_temperature;BME280_humidity;BME280_pressure;Samples;Min_cycle;Max_cycle;Signal;HPM_P1;HPM_P2
2023/01/05 00:01:06;;;;;;;27.10;5.50;;;11.30;99.90;;;;;;5096278;28;20193;-70
2023/01/05 00:03:32;;;;;;;22.13;5.20;;;11.30;99.90;;;;;;5096099;28;20180;-70
2023/01/05 00:05:59;;;;;;;29.23;5.33;;;11.30;99.90;;;;;;5095829;28;20168;-69
2023/01/05 00:08:25;;;;;;;26.90;5.33;;;11.30;99.90;;;;;;5095483;28;20272;-70
2023/01/05 00:24:30;;;;;;;24.67;4.87;;;11.40;99.90;;;;;;5095992;28;20163;-69
2023/01/05 00:26:56;;;;;;;25.07;5.70;;;11.40;99.90;;;;;;5095444;28;20615;-70
2023/01/05 00:29:22;;;;;;;31.63;5.70;;;11.40;99.90;;;;;;5095262;28;20211;-70
2023/01/05 00:31:47;;;;;;;26.80;5.30;;;11.50;99.90;;;;;;5095367;28;20160;-69
2023/01/05 00:34:13;;;;;;;22.57;5.27;;;11.50;99.90;;;;;;5095236;28;20168;-69
2023/01/05 00:36:39;;;;;;;27.63;5.13;;;11.50;99.90;;;;;;5094897;28;20685;-69
2023/01/05 00:39:05;;;;;;;23.03;5.53;;;11.50;99.90;;;;;;5095282;28;20627;-68
2023/01/05 00:41:31;;;;;;;30.80;5.80;;;11.40;99.90;;;;;;5094892;28;20180;-69
2023/01/05 00:43:56;;;;;;;24.00;5.23;;;11.40;99.90;;;;;;5095119;28;20217;-68
2023/01/05 00:46:22;;;;;;;28.33;5.67;;;11.40;99.90;;;;;;5095022;28;20168;-69
2023/01/05 00:48:48;;;;;;;32.37;5.50;;;11.40;99.90;;;;;;5093924;28;20294;-69
2023/01/05 00:51:13;;;;;;;30.60;5.47;;;11.40;99.90;;;;;;5094546;28;20168;-69
2023/01/05 00:53:39;;;;;;;25.43;5.50;;;11.40;99.90;;;;;;5094877;28;20164;-68
2023/01/05 00:56:04;;;;;;;29.57;6.40;;;11.40;99.90;;;;;;5094899;28;20243;-69
2023/01/05 00:58:30;;;;;;;22.53;5.57;;;11.40;99.90;;;;;;5094925;28;20520;-69
2023/01/05 01:00:56;;;;;;;26.90;6.40;;;11.40;99.90;;;;;;5094852;28;20528;-69
2023/01/05 01:03:21;;;;;;;26.60;5.73;;;11.50;99.90;;;;;;5094681;28;20172;-69
2023/01/05 01:05:56;;;;;;;27.90;5.63;;;11.50;99.90;;;;;;5094550;28;20172;-68
2023/01/05 01:08:21;;;;;;;27.07;5.80;;;11.50;99.90;;;;;;5094672;28;20175;-68
2023/01/05 01:10:47;;;;;;;39.27;6.23;;;11.40;99.90;;;;;;5094812;28;20175;-69
2023/01/05 01:13:12;;;;;;;27.40;5.70;;;11.50;99.90;;;;;;5094438;28;20168;-69
2023/01/05 01:15:38;;;;;;;31.77;6.03;;;11.40;99.90;;;;;;5093298;28;20259;-69
2023/01/05 01:18:04;;;;;;;27.40;5.80;;;11.40;99.90;;;;;;5093083;28;20171;-69
2023/01/05 01:20:29;;;;;;;29.60;5.83;;;11.30;99.90;;;;;;5094264;28;20168;-68
2023/01/05 01:22:55;;;;;;;30.23;5.37;;;11.20;99.90;;;;;;5094226;28;20654;-68
2023/01/05 01:25:21;;;;;;;31.83;5.50;;;11.30;99.90;;;;;;5094484;28;20237;-68
2023/01/05 01:27:47;;;;;;;22.40;5.10;;;11.20;99.90;;;;;;5094442;28;20262;-69
2023/01/05 01:30:13;;;;;;;29.30;6.40;;;11.20;99.90;;;;;;5094158;28;20640;-69
2023/01/05 01:32:38;;;;;;;30.20;5.80;;;11.10;99.90;;;;;;5094139;28;20168;-68
2023/01/05 01:35:04;;;;;;;29.60;5.80;;;11.10;99.90;;;;;;5093953;28;20203;-68
2023/01/05 01:37:30;;;;;;;24.93;6.00;;;11.10;99.90;;;;;;5094144;28;20259;-68
2023/01/05 01:39:55;;;;;;;22.10;5.30;;;11.20;99.90;;;;;;5094117;28;20180;-68
2023/01/05 01:42:22;;;;;;;29.57;5.80;;;11.20;99.90;;;;;;5093807;28;20302;-68
2023/01/05 01:44:50;;;;;;;24.93;5.63;;;11.30;99.90;;;;;;5094002;28;20172;-68
2023/01/05 01:47:23;;;;;;;27.10;6.23;;;11.30;99.90;;;;;;5093756;28;20553;-68
2023/01/05 01:49:50;;;;;;;24.57;5.60;;;11.40;99.90;;;;;;5093571;28;20215;-69
2023/01/05 01:52:16;;;;;;;30.97;5.67;;;11.40;99.90;;;;;;5093928;28;20182;-69
2023/01/05 01:54:44;;;;;;;26.03;6.00;;;11.50;99.90;;;;;;5093898;28;20313;-69
2023/01/05 01:57:11;;;;;;;29.33;5.87;;;11.50;99.90;;;;;;5093841;28;20175;-69
2023/01/05 01:59:37;;;;;;;24.87;5.70;;;11.40;99.90;;;;;;5093620;28;20183;-69
2023/01/05 02:02:05;;;;;;;31.27;6.37;;;11.50;99.90;;;;;;5093663;28;20176;-68
2023/01/05 02:04:32;;;;;;;27.77;5.50;;;11.50;99.90;;;;;;5093590;28;20254;-69
2023/01/05 02:06:59;;;;;;;24.10;5.73;;;11.50;99.90;;;;;;5093664;28;20172;-69
2023/01/05 02:09:24;;;;;;;25.87;5.77;;;11.50;99.90;;;;;;5093444;28;20203;-68
2023/01/05 02:11:57;;;;;;;32.10;5.77;;;11.60;99.90;;;;;;5093787;28;20175;-69
2023/01/05 02:14:29;;;;;;;30.27;5.83;;;11.60;99.90;;;;;;5093502;28;20168;-69
2023/01/05 02:17:11;;;;;;;29.30;5.87;;;11.50;99.90;;;;;;5093652;28;20168;-69
2023/01/05 02:20:21;;;;;;;25.20;5.77;;;11.60;99.90;;;;;;5093141;28;20271;-69
2023/01/05 02:22:58;;;;;;;31.77;6.10;;;11.70;99.90;;;;;;5083482;28;20539;-69
2023/01/05 02:25:53;;;;;;;17.40;5.27;;;11.60;99.90;;;;;;5093506;28;20164;-68
2023/01/05 02:28:31;;;;;;;31.20;6.43;;;11.60;99.90;;;;;;5093229;28;20195;-68
2023/01/05 02:31:02;;;;;;;24.73;5.80;;;11.60;99.90;;;;;;5093230;28;20521;-68
2023/01/05 02:33:55;;;;;;;29.10;6.00;;;11.60;99.90;;;;;;5093191;28;20171;-67
2023/01/05 02:36:39;;;;;;;23.20;4.97;;;11.70;99.90;;;;;;5093424;28;20623;-68
2023/01/05 02:39:33;;;;;;;29.20;5.80;;;11.70;99.90;;;;;;5093370;28;20179;-68
2023/01/05 02:42:14;;;;;;;25.70;5.80;;;11.60;99.90;;;;;;5093080;28;20242;-69
2023/01/05 02:44:40;;;;;;;29.63;5.70;;;11.50;99.90;;;;;;5093360;28;20536;-69
2023/01/05 02:47:28;;;;;;;27.20;6.00;;;11.50;99.90;;;;;;5092727;28;20164;-68
2023/01/05 02:49:59;;;;;;;29.50;5.10;;;11.50;99.90;;;;;;5080569;28;20244;-67
2023/01/05 02:52:26;;;;;;;31.77;6.10;;;11.40;99.90;;;;;;5093078;28;20183;-68
2023/01/05 02:54:56;;;;;;;24.67;5.37;;;11.40;99.90;;;;;;5093068;28;20180;-68
2023/01/05 02:57:46;;;;;;;29.30;5.70;;;11.40;99.90;;;;;;5093120;28;20172;-67
2023/01/05 03:00:16;;;;;;;28.57;6.00;;;11.40;99.90;;;;;;5092928;28;20180;-67
2023/01/05 03:02:43;;;;;;;34.07;6.23;;;11.40;99.90;;;;;;5092977;28;20168;-69
2023/01/05 03:05:15;;;;;;;28.17;5.93;;;11.40;99.90;;;;;;5093041;28;20195;-68
2023/01/05 03:07:44;;;;;;;25.97;5.50;;;11.60;99.90;;;;;;5093041;28;20164;-67
2023/01/05 03:15:46;;;;;;;24.37;5.07;;;11.60;99.90;;;;;;5096708;28;20179;-68
2023/01/05 03:18:19;;;;;;;32.83;6.13;;;11.60;99.90;;;;;;5096657;28;20198;-67
2023/01/05 03:20:49;;;;;;;25.17;5.83;;;11.60;99.90;;;;;;5096642;28;20251;-68
2023/01/05 03:38:13;;;;;;;33.70;5.70;;;11.60;99.90;;;;;;5096376;28;20179;-68
2023/01/05 03:40:39;;;;;;;26.53;5.67;;;11.70;99.90;;;;;;5096246;28;20175;-68
2023/01/05 03:43:06;;;;;;;24.90;5.90;;;11.70;99.90;;;;;;5095988;28;20232;-68
2023/01/05 03:45:53;;;;;;;24.67;5.63;;;11.60;99.90;;;;;;5095968;28;20191;-69
2023/01/05 03:48:20;;;;;;;26.30;5.60;;;11.60;99.90;;;;;;5095893;28;20179;-68
2023/01/05 03:50:46;;;;;;;32.87;6.83;;;11.60;99.90;;;;;;5096080;28;20172;-67
2023/01/05 03:53:12;;;;;;;30.70;5.60;;;11.70;99.90;;;;;;5096175;28;20164;-68
2023/01/05 03:55:38;;;;;;;32.90;5.83;;;11.70;99.90;;;;;;5096208;28;20619;-68
2023/01/05 03:58:03;;;;;;;28.53;5.90;;;11.70;99.90;;;;;;5095920;28;20180;-67
2023/01/05 04:00:29;;;;;;;25.83;5.27;;;11.70;99.90;;;;;;5095462;28;20170;-67
2023/01/05 04:02:55;;;;;;;33.17;6.13;;;11.70;99.90;;;;;;5095932;28;20249;-69
2023/01/05 04:05:20;;;;;;;27.93;5.93;;;11.60;99.90;;;;;;5095952;28;20274;-67
2023/01/05 04:07:46;;;;;;;28.73;6.13;;;11.70;99.90;;;;;;5095998;28;20176;-68
2023/01/05 04:10:11;;;;;;;24.17;5.43;;;11.60;99.90;;;;;;5095671;28;20212;-68
2023/01/05 04:12:37;;;;;;;28.63;6.03;;;11.60;99.90;;;;;;5095678;28;20221;-68
2023/01/05 04:15:04;;;;;;;28.73;6.10;;;11.70;99.90;;;;;;5095269;28;20310;-68
2023/01/05 04:17:30;;;;;;;26.63;6.77;;;11.60;99.90;;;;;;5095130;28;20651;-68
2023/01/05 04:19:55;;;;;;;33.33;6.13;;;11.60;99.90;;;;;;5095251;28;20328;-68
2023/01/05 04:22:21;;;;;;;31.87;6.37;;;11.60;99.90;;;;;;5093948;28;20171;-68
2023/01/05 04:24:46;;;;;;;28.83;5.90;;;11.60;99.90;;;;;;5095511;28;20164;-68
2023/01/05 04:27:12;;;;;;;32.03;6.40;;;11.60;99.90;;;;;;5094312;28;20623;-68
2023/01/05 04:29:38;;;;;;;33.57;6.37;;;11.60;99.90;;;;;;5094846;28;20203;-68
2023/01/05 04:32:04;;;;;;;23.33;5.90;;;11.60;99.90;;;;;;5095022;28;20247;-67
2023/01/05 04:34:29;;;;;;;30.93;6.00;;;11.60;99.90;;;;;;5094845;28;20518;-68
2023/01/05 04:36:55;;;;;;;25.23;5.13;;;11.70;99.90;;;;;;5095136;28;20664;-68
2023/01/05 04:39:20;;;;;;;23.87;5.67;;;11.70;99.90;;;;;;5095408;28;20221;-67
2023/01/05 04:41:47;;;;;;;29.97;5.63;;;11.70;99.90;;;;;;5094553;28;20648;-66
2023/01/05 04:44:13;;;;;;;31.40;6.00;;;11.60;99.90;;;;;;5094326;28;20575;-67
2023/01/05 04:46:39;;;;;;;32.03;6.60;;;11.60;99.90;;;;;;5094903;28;20179;-69
2023/01/05 04:49:04;;;;;;;26.97;6.37;;;11.60;99.90;;;;;;5094745;28;20207;-67
2023/01/05 04:51:30;;;;;;;26.80;5.53;;;11.60;99.90;;;;;;5093396;28;20172;-68
2023/01/05 04:53:55;;;;;;;19.90;5.57;;;11.60;99.90;;;;;;5094683;28;20198;-68
2023/01/05 04:56:21;;;;;;;27.97;5.97;;;11.50;99.90;;;;;;5094209;28;20168;-68
2023/01/05 04:58:47;;;;;;;29.87;5.97;;;11.50;99.90;;;;;;5092172;28;20373;-67
2023/01/05 05:01:12;;;;;;;27.23;6.07;;;11.50;99.90;;;;;;5094285;28;20180;-67
2023/01/05 05:03:38;;;;;;;27.93;6.23;;;11.50;99.90;;;;;;5094506;28;20191;-67
2023/01/05 05:06:04;;;;;;;27.63;6.47;;;11.50;99.90;;;;;;5093946;28;20175;-67
2023/01/05 05:08:30;;;;;;;27.30;6.00;;;11.60;99.90;;;;;;5093676;28;20650;-68
2023/01/05 05:10:55;;;;;;;31.07;6.13;;;11.50;99.90;;;;;;5093862;28;20176;-68
2023/01/05 05:13:21;;;;;;;34.70;6.07;;;11.50;99.90;;;;;;5093881;28;20237;-68
2023/01/05 05:15:46;;;;;;;29.63;6.17;;;11.50;99.90;;;;;;5094448;28;20606;-68
2023/01/05 05:18:12;;;;;;;27.93;6.40;;;11.40;99.90;;;;;;5093921;28;20732;-68
2023/01/05 05:20:41;;;;;;;28.97;5.83;;;11.40;99.90;;;;;;5093692;28;20168;-68
2023/01/05 05:23:07;;;;;;;33.50;5.90;;;11.40;99.90;;;;;;5092545;28;20225;-68
2023/01/05 05:25:32;;;;;;;27.90;4.83;;;11.30;99.90;;;;;;5093962;28;20555;-68
2023/01/05 05:27:58;;;;;;;30.87;5.97;;;11.30;99.90;;;;;;5092859;28;20183;-68
2023/01/05 05:30:23;;;;;;;33.03;6.87;;;11.30;99.90;;;;;;5093403;28;20290;-68
2023/01/05 05:32:49;;;;;;;28.83;5.80;;;11.30;99.90;;;;;;5093524;28;20172;-68
2023/01/05 05:35:14;;;;;;;39.17;6.67;;;11.30;99.90;;;;;;5093518;28;20176;-69
2023/01/05 05:37:40;;;;;;;31.33;6.07;;;11.30;99.90;;;;;;5093317;28;20174;-68
2023/01/05 05:40:06;;;;;;;32.03;6.00;;;11.30;99.90;;;;;;5093608;28;20199;-67
2023/01/05 05:42:32;;;;;;;27.27;6.83;;;11.20;99.90;;;;;;5092298;28;20691;-68
2023/01/05 05:44:57;;;;;;;35.87;5.97;;;11.30;99.90;;;;;;5092196;28;20183;-68
2023/01/05 05:47:23;;;;;;;29.30;6.90;;;11.30;99.90;;;;;;5093155;28;20252;-69
2023/01/05 05:49:49;;;;;;;31.80;6.80;;;11.30;99.90;;;;;;5093094;28;20559;-68
2023/01/05 05:52:14;;;;;;;28.40;6.60;;;11.30;99.90;;;;;;5092782;28;20163;-68
2023/01/05 05:54:40;;;;;;;36.47;6.63;;;11.30;99.90;;;;;;5093495;28;20207;-68
2023/01/05 05:57:05;;;;;;;34.17;6.60;;;11.30;99.90;;;;;;5091316;28;20178;-68
2023/01/05 05:59:31;;;;;;;24.47;6.30;;;11.30;99.90;;;;;;5092754;28;20266;-68
2023/01/05 06:01:56;;;;;;;29.40;6.23;;;11.40;99.90;;;;;;5092834;28;20172;-68
2023/01/05 06:04:22;;;;;;;35.43;7.30;;;11.50;99.90;;;;;;5093114;28;20176;-68
2023/01/05 06:06:47;;;;;;;27.23;6.23;;;11.50;99.90;;;;;;5092933;28;20525;-68
2023/01/05 06:09:13;;;;;;;37.90;6.83;;;11.50;99.90;;;;;;5092364;28;20230;-68
2023/01/05 06:11:39;;;;;;;35.33;7.27;;;11.50;99.90;;;;;;5092489;28;20703;-68
2023/01/05 06:14:05;;;;;;;39.00;6.17;;;11.60;99.90;;;;;;5092162;28;20262;-68
2023/01/05 06:16:30;;;;;;;29.67;7.00;;;11.60;99.90;;;;;;5092363;28;20156;-67
2023/01/05 06:18:56;;;;;;;36.97;6.97;;;11.60;99.90;;;;;;5090968;28;20192;-68
2023/01/05 06:21:22;;;;;;;35.17;7.10;;;11.50;99.90;;;;;;5091877;28;20684;-68
2023/01/05 06:23:47;;;;;;;32.60;6.27;;;11.50;99.90;;;;;;5091613;28;20201;-68
2023/01/05 06:26:13;;;;;;;32.63;7.10;;;11.50;99.90;;;;;;5092211;28;20512;-68
2023/01/05 06:28:38;;;;;;;26.70;6.33;;;11.50;99.90;;;;;;5091935;28;20200;-68
2023/01/05 06:31:04;;;;;;;36.37;5.70;;;11.50;99.90;;;;;;5092298;28;20172;-68
2023/01/05 06:33:30;;;;;;;31.80;7.03;;;11.50;99.90;;;;;;5092134;28;20168;-67
2023/01/05 06:35:57;;;;;;;32.03;6.50;;;11.40;99.90;;;;;;5092051;28;20172;-68
2023/01/05 06:38:24;;;;;;;26.83;6.00;;;11.50;99.90;;;;;;5092075;28;20171;-68
2023/01/05 06:40:50;;;;;;;38.33;7.10;;;11.40;99.90;;;;;;5091686;28;20195;-68
2023/01/05 06:43:16;;;;;;;30.13;6.70;;;11.30;99.90;;;;;;5092054;28;20254;-69
2023/01/05 06:45:42;;;;;;;37.37;7.10;;;11.30;99.90;;;;;;5090774;28;20176;-69
2023/01/05 06:48:07;;;;;;;28.60;6.20;;;11.30;99.90;;;;;;5095334;28;20179;-69
2023/01/05 06:50:33;;;;;;;32.50;6.80;;;11.30;99.90;;;;;;5095932;28;20264;-68
2023/01/05 06:52:59;;;;;;;30.97;6.00;;;11.40;99.90;;;;;;5095339;28;20172;-68
2023/01/05 06:55:25;;;;;;;34.23;6.87;;;11.40;99.90;;;;;;5095542;28;20195;-67
2023/01/05 06:57:50;;;;;;;32.40;6.30;;;11.40;99.90;;;;;;5095792;28;20167;-68
2023/01/05 07:00:16;;;;;;;35.17;6.93;;;11.40;99.90;;;;;;5096422;28;20180;-68
2023/01/05 07:02:42;;;;;;;27.90;5.73;;;11.30;99.90;;;;;;5095655;28;20172;-68
2023/01/05 07:05:08;;;;;;;32.90;6.87;;;11.40;99.90;;;;;;5095904;28;20183;-67
2023/01/05 07:07:34;;;;;;;34.43;6.13;;;11.40;99.90;;;;;;5096058;28;20171;-69
2023/01/05 07:10:00;;;;;;;40.07;10.90;;;11.40;99.90;;;;;;5094984;28;20663;-68
2023/01/05 07:12:26;;;;;;;28.87;6.17;;;11.40;99.90;;;;;;5095453;28;20229;-68
2023/01/05 07:14:52;;;;;;;27.20;5.73;;;11.40;99.90;;;;;;5096174;28;20171;-68
2023/01/05 07:17:18;;;;;;;34.07;6.80;;;11.40;99.90;;;;;;5095228;28;20175;-68
2023/01/05 07:19:43;;;;;;;35.67;7.10;;;11.30;99.90;;;;;;5095391;28;20200;-68
2023/01/05 07:22:09;;;;;;;31.77;6.30;;;11.30;99.90;;;;;;5095217;28;20172;-68
2023/01/05 07:24:35;;;;;;;22.43;5.80;;;11.30;99.90;;;;;;5095465;28;20631;-68
2023/01/05 07:27:01;;;;;;;31.90;5.83;;;11.30;99.90;;;;;;5094561;28;20198;-67
2023/01/05 07:29:26;;;;;;;32.37;6.93;;;11.30;99.90;;;;;;5095705;28;20272;-69
2023/01/05 07:31:52;;;;;;;29.37;6.03;;;11.30;99.90;;;;;;5096003;28;20535;-68
2023/01/05 07:34:19;;;;;;;162.30;32.50;;;11.30;99.90;;;;;;5095238;28;20627;-68
2023/01/05 07:36:45;;;;;;;49.47;11.47;;;11.30;99.90;;;;;;5094496;28;20183;-69
2023/01/05 07:39:10;;;;;;;44.93;9.17;;;11.20;99.90;;;;;;5095373;28;20176;-67
2023/01/05 07:41:36;;;;;;;41.97;7.77;;;11.20;99.90;;;;;;5094557;28;20256;-68
2023/01/05 07:44:02;;;;;;;31.43;6.50;;;11.00;99.90;;;;;;5093922;28;20600;-67
2023/01/05 07:46:27;;;;;;;40.90;7.63;;;10.80;99.90;;;;;;5093939;28;20736;-68
2023/01/05 07:48:53;;;;;;;41.30;7.43;;;10.70;99.90;;;;;;5094358;28;20298;-66
2023/01/05 07:51:18;;;;;;;36.37;7.10;;;10.60;99.90;;;;;;5093717;28;20219;-67
2023/01/05 07:53:44;;;;;;;41.30;6.30;;;10.60;99.90;;;;;;5092725;28;20258;-66
2023/01/05 07:56:11;;;;;;;36.83;7.00;;;10.70;99.90;;;;;;5078074;28;20631;-67
2023/01/05 07:58:36;;;;;;;40.33;6.90;;;10.60;99.90;;;;;;5080446;28;20290;-67
2023/01/05 08:01:06;;;;;;;41.07;6.57;;;10.80;99.90;;;;;;5083539;28;20258;-67
2023/01/05 08:03:32;;;;;;;39.60;7.27;;;10.80;99.90;;;;;;5088381;28;20166;-66
2023/01/05 08:06:03;;;;;;;33.10;6.33;;;10.80;99.90;;;;;;5092422;28;20175;-67
2023/01/05 08:08:29;;;;;;;35.73;6.73;;;10.90;99.90;;;;;;5082070;28;20643;-67
2023/01/05 08:10:55;;;;;;;44.53;9.20;;;10.90;99.90;;;;;;5081745;28;20227;-68
2023/01/05 08:16:05;;;;;;;34.50;6.30;;;11.00;99.90;;;;;;5087190;28;20540;-69
2023/01/05 08:18:30;;;;;;;32.97;7.00;;;11.10;99.90;;;;;;5096617;28;20191;-68
2023/01/05 08:20:59;;;;;;;34.77;6.00;;;11.10;99.90;;;;;;5082939;28;20266;-67
2023/01/05 08:23:26;;;;;;;31.17;6.70;;;11.10;99.90;;;;;;5090519;28;20202;-69
2023/01/05 08:25:53;;;;;;;26.47;5.90;;;11.10;99.90;;;;;;5097678;28;20176;-69
2023/01/05 08:28:19;;;;;;;36.13;6.93;;;11.10;99.90;;;;;;5087835;28;20191;-68
2023/01/05 08:30:46;;;;;;;31.73;7.20;;;11.10;99.90;;;;;;5074781;28;20220;-71
2023/01/05 08:33:12;;;;;;;38.03;7.57;;;11.10;99.90;;;;;;5080693;28;20188;-69
2023/01/05 08:35:42;;;;;;;42.70;7.90;;;11.20;99.90;;;;;;5084686;28;20885;-67
2023/01/05 08:38:08;;;;;;;34.93;7.27;;;11.40;99.90;;;;;;5087998;28;20186;-69
2023/01/05 08:40:35;;;;;;;52.13;16.43;;;11.50;99.90;;;;;;5092056;28;20172;-67
2023/01/05 08:43:00;;;;;;;32.37;7.37;;;11.50;99.90;;;;;;5049961;28;1134480;-71
2023/01/05 08:45:28;;;;;;;31.50;6.07;;;11.60;99.90;;;;;;5083453;28;20177;-70
2023/01/05 08:47:54;;;;;;;27.70;6.80;;;11.70;99.90;;;;;;5089812;28;20245;-70
2023/01/05 08:50:20;;;;;;;29.70;6.87;;;11.70;99.90;;;;;;5079784;28;20220;-70
2023/01/05 08:52:45;;;;;;;34.77;6.83;;;11.70;99.90;;;;;;5086542;28;20243;-70
2023/01/05 08:55:11;;;;;;;29.83;6.87;;;11.80;99.90;;;;;;5095544;28;20272;-70
2023/01/05 08:57:37;;;;;;;31.50;7.30;;;11.80;99.90;;;;;;5096555;28;20179;-69
2023/01/05 09:00:03;;;;;;;36.50;7.77;;;11.90;99.90;;;;;;5090237;28;20199;-68
2023/01/05 09:02:29;;;;;;;30.53;7.67;;;11.90;99.90;;;;;;5085663;28;20229;-68
2023/01/05 09:04:55;;;;;;;28.90;6.37;;;11.90;99.90;;;;;;5103337;28;20601;-68
2023/01/05 09:07:21;;;;;;;28.90;8.03;;;12.00;99.90;;;;;;5086238;28;20226;-71
2023/01/05 09:09:47;;;;;;;26.83;6.67;;;12.00;99.90;;;;;;5087364;28;20589;-70
2023/01/05 09:12:12;;;;;;;193.63;129.40;;;12.00;99.90;;;;;;5093119;28;20196;-73
2023/01/05 09:14:38;;;;;;;29.50;6.70;;;12.00;99.90;;;;;;5086985;28;20234;-72
2023/01/05 09:17:03;;;;;;;34.67;6.67;;;12.10;99.90;;;;;;5095811;28;20175;-71
2023/01/05 09:19:29;;;;;;;33.97;8.47;;;12.10;99.90;;;;;;5093075;28;20176;-70
2023/01/05 09:21:55;;;;;;;32.83;6.60;;;12.10;99.90;;;;;;5095962;28;20183;-72
2023/01/05 09:24:20;;;;;;;29.97;6.97;;;12.30;99.90;;;;;;5091680;28;20187;-72
2023/01/05 09:26:46;;;;;;;27.43;6.70;;;12.40;99.90;;;;;;5089044;28;20536;-73
2023/01/05 09:29:12;;;;;;;31.00;6.93;;;12.40;99.90;;;;;;5104535;27;20205;-73
2023/01/05 09:31:42;;;;;;;32.67;7.43;;;12.30;99.90;;;;;;5088592;28;20191;-72
2023/01/05 09:34:07;;;;;;;27.13;6.60;;;12.40;99.90;;;;;;5102763;28;20284;-71
2023/01/05 09:36:33;;;;;;;34.73;7.57;;;12.40;99.90;;;;;;5096228;28;20654;-70
2023/01/05 09:38:59;;;;;;;22.93;6.20;;;12.50;99.90;;;;;;5094195;28;20175;-75
2023/01/05 09:41:46;;;;;;;26.33;6.73;;;12.70;99.90;;;;;;5097836;28;20180;-69
2023/01/05 09:44:38;;;;;;;26.50;6.93;;;12.80;99.90;;;;;;5082299;28;20190;-71
2023/01/05 09:47:10;;;;;;;30.20;6.90;;;13.10;99.90;;;;;;5088648;28;20537;-73
2023/01/05 09:49:39;;;;;;;37.10;6.93;;;13.30;99.90;;;;;;5104590;27;20626;-73
2023/01/05 09:52:09;;;;;;;30.77;9.03;;;13.50;99.90;;;;;;5092119;28;20678;-72
2023/01/05 09:54:39;;;;;;;34.17;7.67;;;13.60;99.90;;;;;;5099152;28;20175;-70
2023/01/05 09:57:26;;;;;;;29.33;6.73;;;13.90;99.90;;;;;;5084328;28;20180;-72
2023/01/05 09:59:59;;;;;;;24.73;6.20;;;13.90;99.90;;;;;;5074541;28;20183;-71
2023/01/05 10:02:43;;;;;;;27.17;6.47;;;13.70;99.90;;;;;;5083366;28;20177;-73
2023/01/05 10:05:18;;;;;;;24.80;6.20;;;13.70;99.90;;;;;;5078523;28;20596;-71
2023/01/05 10:08:03;;;;;;;26.63;6.57;;;13.80;99.90;;;;;;5085743;28;20184;-72
2023/01/05 10:10:45;;;;;;;28.27;6.30;;;14.00;99.90;;;;;;5108041;28;20190;-73
2023/01/05 10:13:22;;;;;;;28.27;6.70;;;14.20;99.90;;;;;;5084572;28;20168;-72
2023/01/05 10:15:51;;;;;;;24.73;6.07;;;14.00;99.90;;;;;;5074190;28;20176;-71
2023/01/05 10:18:22;;;;;;;26.10;6.43;;;14.30;99.90;;;;;;5076085;28;20237;-73
2023/01/05 10:21:00;;;;;;;30.53;6.37;;;14.40;99.90;;;;;;5089168;28;20273;-73
2023/01/05 10:23:28;;;;;;;26.77;5.87;;;14.60;99.90;;;;;;5076246;28;20168;-68
2023/01/05 10:25:57;;;;;;;27.03;6.17;;;14.70;99.90;;;;;;5081464;28;20699;-68
2023/01/05 10:28:34;;;;;;;24.33;6.53;;;14.60;99.90;;;;;;5078066;28;20271;-68
2023/01/05 10:31:22;;;;;;;26.17;6.07;;;14.40;99.90;;;;;;5092630;28;20502;-68
2023/01/05 10:33:53;;;;;;;28.93;5.87;;;14.30;99.90;;;;;;5082112;28;20179;-68
2023/01/05 10:36:53;;;;;;;23.67;6.60;;;14.50;99.90;;;;;;5088134;28;20231;-69
2023/01/05 10:39:43;;;;;;;23.93;6.43;;;14.60;99.90;;;;;;5017287;28;20717;-69
2023/01/05 10:42:36;;;;;;;26.97;6.67;;;14.80;99.90;;;;;;4998738;28;20205;-70
2023/01/05 10:45:03;;;;;;;25.27;5.70;;;14.90;99.90;;;;;;5000086;28;20236;-72
2023/01/05 10:47:34;;;;;;;21.17;5.67;;;14.80;99.90;;;;;;4988992;28;20305;-72
2023/01/05 10:50:01;;;;;;;27.23;6.03;;;14.40;99.90;;;;;;5015668;28;20352;-71
2023/01/05 10:52:27;;;;;;;29.43;6.83;;;14.30;99.90;;;;;;5021105;28;20171;-70
2023/01/05 10:55:00;;;;;;;25.77;6.57;;;14.20;99.90;;;;;;5010879;28;20214;-69
2023/01/05 10:57:30;;;;;;;22.70;5.80;;;14.10;99.90;;;;;;5012898;28;20278;-68
2023/01/05 11:00:18;;;;;;;25.70;6.33;;;13.90;99.90;;;;;;4993240;28;20182;-68
2023/01/05 11:03:02;;;;;;;24.70;6.27;;;13.90;99.90;;;;;;4998927;28;20707;-70
2023/01/05 11:05:36;;;;;;;22.83;5.67;;;14.10;99.90;;;;;;5012064;28;20202;-71
2023/01/05 11:08:13;;;;;;;24.27;6.23;;;14.10;99.90;;;;;;5011380;28;20548;-72
2023/01/05 11:10:47;;;;;;;30.40;6.10;;;14.20;99.90;;;;;;5000228;28;20259;-71
2023/01/05 11:13:15;;;;;;;27.40;5.77;;;13.80;99.90;;;;;;5018311;28;20629;-69
2023/01/05 11:15:46;;;;;;;25.73;6.23;;;14.00;99.90;;;;;;5053524;28;20193;-68
2023/01/05 11:18:24;;;;;;;27.67;6.67;;;14.10;99.90;;;;;;5066819;28;20228;-67
2023/01/05 11:21:12;;;;;;;24.47;6.10;;;13.90;99.90;;;;;;5060257;28;20182;-69
2023/01/05 11:23:44;;;;;;;28.00;6.43;;;13.90;99.90;;;;;;5061749;28;20262;-68
2023/01/05 11:26:31;;;;;;;26.67;6.53;;;14.00;99.90;;;;;;5077254;28;20177;-68
2023/01/05 11:29:02;;;;;;;27.73;5.87;;;14.10;99.90;;;;;;5096095;28;20202;-69
2023/01/05 11:31:51;;;;;;;25.17;6.47;;;13.90;99.90;;;;;;5091419;28;20538;-69
2023/01/05 11:34:28;;;;;;;29.60;6.20;;;14.00;99.90;;;;;;5087965;28;20172;-71
2023/01/05 11:36:56;;;;;;;32.10;10.10;;;14.00;99.90;;;;;;5103315;28;20212;-68
2023/01/05 11:39:45;;;;;;;27.77;7.27;;;14.10;99.90;;;;;;5110307;28;20179;-70
2023/01/05 11:42:34;;;;;;;28.87;7.90;;;14.10;99.90;;;;;;5082217;28;20266;-69
2023/01/05 11:45:03;;;;;;;28.53;7.90;;;13.80;99.90;;;;;;5103345;27;20160;-68
2023/01/05 11:47:45;;;;;;;32.00;8.33;;;13.80;99.90;;;;;;5109499;28;20665;-68
2023/01/05 11:50:47;;;;;;;40.80;13.67;;;14.00;99.90;;;;;;5091745;28;20215;-70
2023/01/05 11:53:25;;;;;;;38.97;11.10;;;14.20;99.90;;;;;;5025006;28;20185;-69
2023/01/05 11:56:01;;;;;;;42.47;14.83;;;14.20;99.90;;;;;;5013327;28;20513;-67
2023/01/05 11:58:32;;;;;;;33.67;9.13;;;14.20;99.90;;;;;;5008715;28;20321;-68
2023/01/05 12:01:06;;;;;;;35.57;14.50;;;14.20;99.90;;;;;;5014077;28;20245;-67
2023/01/05 12:04:01;;;;;;;36.17;12.93;;;14.20;99.90;;;;;;5020895;28;20296;-69
2023/01/05 12:07:01;;;;;;;36.63;15.83;;;14.20;99.90;;;;;;5017598;28;20258;-67
2023/01/05 12:09:40;;;;;;;35.87;8.30;;;14.20;99.90;;;;;;5009700;28;20213;-68
2023/01/05 12:12:08;;;;;;;40.47;16.53;;;14.10;99.90;;;;;;5024545;28;20649;-68
2023/01/05 12:14:42;;;;;;;37.17;12.90;;;14.00;99.90;;;;;;5025255;28;20174;-68
2023/01/05 12:17:19;;;;;;;33.77;11.43;;;13.90;99.90;;;;;;5019870;28;20210;-67
2023/01/05 12:20:19;;;;;;;29.97;9.67;;;14.00;99.90;;;;;;5020296;28;20290;-68
2023/01/05 12:23:03;;;;;;;26.23;9.73;;;14.10;99.90;;;;;;5017544;28;20786;-67
2023/01/05 12:25:41;;;;;;;31.90;7.77;;;14.30;99.90;;;;;;5025893;28;20709;-69
2023/01/05 12:28:44;;;;;;;33.50;7.13;;;14.40;99.90;;;;;;5009187;28;20174;-69
2023/01/05 12:31:30;;;;;;;29.83;6.83;;;14.40;99.90;;;;;;5095685;28;20180;-68
2023/01/05 12:34:13;;;;;;;36.60;8.00;;;14.30;99.90;;;;;;5101119;28;20258;-71
2023/01/05 12:36:57;;;;;;;30.80;7.37;;;14.30;99.90;;;;;;5098614;28;20171;-70
2023/01/05 12:39:37;;;;;;;29.73;7.10;;;14.00;99.90;;;;;;5094377;28;20175;-70
2023/01/05 12:42:27;;;;;;;35.00;7.90;;;14.00;99.90;;;;;;5089346;28;20219;-70
2023/01/05 12:45:18;;;;;;;31.77;7.70;;;13.90;99.90;;;;;;5099558;28;20168;-71
2023/01/05 12:48:13;;;;;;;30.20;7.67;;;13.80;99.90;;;;;;5102080;28;20644;-70
2023/01/05 12:51:01;;;;;;;32.93;7.43;;;13.80;99.90;;;;;;5097651;28;20536;-70
2023/01/05 12:53:36;;;;;;;31.87;8.47;;;13.70;99.90;;;;;;5083649;28;20183;-72
2023/01/05 12:56:16;;;;;;;43.90;9.17;;;13.70;99.90;;;;;;5104417;28;20166;-71
2023/01/05 12:59:07;;;;;;;35.80;7.13;;;13.80;99.90;;;;;;5105167;28;20170;-72
2023/01/05 13:01:40;;;;;;;38.10;10.23;;;13.70;99.90;;;;;;5097543;28;20160;-69
2023/01/05 13:04:31;;;;;;;42.80;9.90;;;13.70;99.90;;;;;;5094853;28;20160;-68
2023/01/05 13:06:59;;;;;;;53.90;13.83;;;13.60;99.90;;;;;;5103136;28;20172;-70
2023/01/05 13:09:29;;;;;;;95.27;23.50;;;13.60;99.90;;;;;;5094617;28;20770;-72
2023/01/05 13:12:03;;;;;;;144.97;35.40;;;13.70;99.90;;;;;;5099175;28;20167;-69
2023/01/05 13:14:33;;;;;;;81.97;27.57;;;13.60;99.90;;;;;;5075976;28;20277;-67
2023/01/05 13:17:25;;;;;;;37.60;9.33;;;13.50;99.90;;;;;;5100923;28;20679;-69
2023/01/05 13:20:15;;;;;;;32.73;7.90;;;13.30;99.90;;;;;;5090008;28;20340;-70
2023/01/05 13:22:43;;;;;;;35.63;9.77;;;13.20;99.90;;;;;;5091097;28;20218;-70
2023/01/05 13:25:22;;;;;;;50.33;20.13;;;13.20;99.90;;;;;;5095402;28;20180;-69
2023/01/05 13:27:48;;;;;;;56.07;31.80;;;13.20;99.90;;;;;;5097029;28;20175;-70
2023/01/05 13:30:30;;;;;;;50.17;18.27;;;13.00;99.90;;;;;;5089693;28;20561;-71